Time;durP1;ratioP1;P1;durP2;ratioP2;P2;SDS_P1;SDS_P2;PMS_P1;PMS_P2;Temp;Humidity;BMP_temperature;BMP_pressure;BME280_temperature;BME280_humidity;BME280_pressure;Samples;Min_cycle;Max_cycle;Signal;HPM_P1;HPM_P2
2024/02/21 00:01:50;;;;;;;5.47;2.10;;;9.40;99.90;;;;;;5009928;28;20241;-68
2024/02/21 00:04:19;;;;;;;6.07;1.90;;;9.40;99.90;;;;;;5016416;28;20253;-68
2024/02/21 00:06:47;;;;;;;7.87;2.27;;;9.40;99.90;;;;;;5003851;28;20260;-68
2024/02/21 00:09:14;;;;;;;4.10;1.70;;;9.40;99.90;;;;;;4990920;28;20202;-68
2024/02/21 00:11:42;;;;;;;9.23;2.10;;;9.40;99.90;;;;;;5010211;28;20225;-68
2024/02/21 00:14:09;;;;;;;3.07;1.70;;;9.40;99.90;;;;;;5007968;28;20244;-68
2024/02/21 00:16:36;;;;;;;5.93;2.30;;;9.40;99.90;;;;;;5008745;28;20186;-68
2024/02/21 00:19:03;;;;;;;3.60;1.50;;;9.50;99.90;;;;;;5021973;28;20506;-67
2024/02/21 00:21:31;;;;;;;3.43;1.70;;;9.40;99.90;;;;;;4994304;28;20657;-68
2024/02/21 00:23:58;;;;;;;5.63;2.00;;;9.40;99.90;;;;;;5016421;28;20215;-67
2024/02/21 00:26:25;;;;;;;5.17;2.20;;;9.40;99.90;;;;;;5010097;28;20250;-68
2024/02/21 00:28:52;;;;;;;6.73;2.80;;;9.50;99.90;;;;;;5010197;28;20206;-69
2024/02/21 00:31:19;;;;;;;5.37;2.03;;;9.50;99.90;;;;;;5011590;28;20324;-69
2024/02/21 00:33:47;;;;;;;4.17;1.83;;;9.50;99.90;;;;;;5014499;28;20198;-68
2024/02/21 00:36:14;;;;;;;5.13;1.77;;;9.50;99.90;;;;;;5020880;28;20260;-68
2024/02/21 00:38:43;;;;;;;4.87;1.83;;;9.50;99.90;;;;;;5020316;28;20294;-68
2024/02/21 00:41:10;;;;;;;4.43;1.93;;;9.40;99.90;;;;;;5010502;28;20278;-68
2024/02/21 00:43:37;;;;;;;5.33;2.00;;;9.40;99.90;;;;;;5010514;28;20203;-68
2024/02/21 00:46:06;;;;;;;7.63;2.50;;;9.40;99.90;;;;;;5000663;28;20895;-68
2024/02/21 00:48:35;;;;;;;6.67;2.47;;;9.40;99.90;;;;;;5006565;28;20284;-69
2024/02/21 00:51:02;;;;;;;3.00;1.40;;;9.40;99.90;;;;;;5006445;28;20190;-68
2024/02/21 00:53:29;;;;;;;3.47;1.60;;;9.40;99.90;;;;;;5007159;28;20201;-67
2024/02/21 00:55:57;;;;;;;2.67;1.33;;;9.30;99.90;;;;;;5008631;28;20212;-69
2024/02/21 00:58:24;;;;;;;1.80;1.30;;;9.30;99.90;;;;;;5009057;28;20187;-69
2024/02/21 01:00:51;;;;;;;2.33;1.30;;;9.30;99.90;;;;;;5011902;28;20661;-69
2024/02/21 01:03:19;;;;;;;4.03;1.60;;;9.30;99.90;;;;;;4992449;28;20233;-69
2024/02/21 01:05:46;;;;;;;2.43;1.40;;;9.30;99.90;;;;;;5010125;28;20222;-68
2024/02/21 01:08:13;;;;;;;4.30;1.77;;;9.30;99.90;;;;;;5009949;28;20213;-67
2024/02/21 01:10:40;;;;;;;8.40;2.10;;;9.20;99.90;;;;;;5012497;28;20201;-68
2024/02/21 01:13:09;;;;;;;1.70;1.00;;;9.30;99.90;;;;;;5008276;28;20206;-68
2024/02/21 01:15:36;;;;;;;8.00;1.90;;;9.20;99.90;;;;;;5012178;28;20276;-68
2024/02/21 01:18:05;;;;;;;3.10;1.70;;;9.20;99.90;;;;;;5008548;28;20308;-68
2024/02/21 01:20:32;;;;;;;2.67;1.70;;;9.20;99.90;;;;;;5011630;28;20285;-68
2024/02/21 01:22:59;;;;;;;3.87;1.60;;;9.20;99.90;;;;;;5008676;28;20248;-69
2024/02/21 01:25:26;;;;;;;6.20;2.20;;;9.30;99.90;;;;;;5005940;28;20673;-68
2024/02/21 01:27:53;;;;;;;3.93;1.50;;;9.30;99.90;;;;;;5007689;28;20261;-68
2024/02/21 01:30:21;;;;;;;3.47;1.63;;;9.20;99.90;;;;;;5017914;28;20194;-68
2024/02/21 01:32:48;;;;;;;6.30;1.70;;;9.30;99.90;;;;;;5013719;28;20221;-68
2024/02/21 01:35:15;;;;;;;5.07;1.83;;;9.30;99.90;;;;;;5014622;28;20203;-68
2024/02/21 01:37:42;;;;;;;5.00;1.97;;;9.20;99.90;;;;;;4991699;28;20719;-68
2024/02/21 01:40:10;;;;;;;5.87;2.10;;;9.30;99.90;;;;;;5011830;28;20252;-68
2024/02/21 01:42:40;;;;;;;6.60;2.03;;;9.30;99.90;;;;;;5009637;28;20348;-68
2024/02/21 01:45:08;;;;;;;5.70;2.30;;;9.30;99.90;;;;;;5020090;28;20569;-68
2024/02/21 01:47:37;;;;;;;5.93;2.20;;;9.30;99.90;;;;;;5010366;28;20257;-68
2024/02/21 01:50:05;;;;;;;8.07;2.83;;;9.30;99.90;;;;;;5018941;28;20629;-68
2024/02/21 01:52:33;;;;;;;5.50;1.90;;;9.30;99.90;;;;;;5009552;28;20219;-68
2024/02/21 01:55:01;;;;;;;2.90;1.90;;;9.30;99.90;;;;;;5015691;28;20233;-68
2024/02/21 01:57:29;;;;;;;3.17;2.17;;;9.20;99.90;;;;;;5010268;28;20616;-68
2024/02/21 01:59:56;;;;;;;4.80;1.80;;;9.20;99.90;;;;;;5017932;28;20285;-68
2024/02/21 02:02:23;;;;;;;2.73;1.40;;;9.20;99.90;;;;;;5009222;28;20218;-69
2024/02/21 02:04:52;;;;;;;5.13;1.83;;;9.20;99.90;;;;;;5010381;28;20242;-69
2024/02/21 02:07:20;;;;;;;6.57;2.10;;;9.20;99.90;;;;;;5013037;28;20227;-69
2024/02/21 02:09:48;;;;;;;4.47;1.90;;;9.20;99.90;;;;;;5013528;28;20261;-69
2024/02/21 02:12:15;;;;;;;2.20;1.30;;;9.20;99.90;;;;;;5003055;28;20195;-69
2024/02/21 02:14:42;;;;;;;3.53;1.40;;;9.20;99.90;;;;;;4991387;28;20210;-69
2024/02/21 02:17:09;;;;;;;3.87;1.50;;;9.30;99.90;;;;;;5013963;28;20285;-69
2024/02/21 02:19:36;;;;;;;3.37;1.30;;;9.20;99.90;;;;;;5012120;28;20234;-69
2024/02/21 02:22:14;;;;;;;6.30;2.00;;;9.20;99.90;;;;;;5020949;28;20599;-69
2024/02/21 02:24:43;;;;;;;6.63;2.00;;;9.20;99.90;;;;;;5006401;28;20757;-68
2024/02/21 02:27:10;;;;;;;4.30;1.90;;;9.20;99.90;;;;;;5006638;28;20193;-69
2024/02/21 02:29:37;;;;;;;11.27;2.30;;;9.20;99.90;;;;;;5004503;28;20606;-68
2024/02/21 02:32:05;;;;;;;4.40;1.77;;;9.20;99.90;;;;;;5012475;28;20202;-68
2024/02/21 02:34:32;;;;;;;5.23;2.10;;;9.20;99.90;;;;;;5012629;28;20201;-68
2024/02/21 02:36:59;;;;;;;10.37;2.67;;;9.20;99.90;;;;;;4998008;28;20209;-69
2024/02/21 02:39:26;;;;;;;5.40;1.97;;;9.20;99.90;;;;;;4994366;28;20529;-68
2024/02/21 02:41:54;;;;;;;6.60;2.40;;;9.10;99.90;;;;;;5019937;28;20650;-68
2024/02/21 02:44:21;;;;;;;6.93;2.10;;;9.10;99.90;;;;;;5018737;28;20203;-68
2024/02/21 02:46:48;;;;;;;3.83;1.70;;;9.00;99.90;;;;;;5021709;28;20282;-69
2024/02/21 02:49:15;;;;;;;3.63;1.50;;;9.10;99.90;;;;;;5010840;28;20301;-68
2024/02/21 02:51:43;;;;;;;4.13;2.00;;;9.00;99.90;;;;;;5003878;28;20210;-67
2024/02/21 02:54:10;;;;;;;4.47;1.40;;;9.00;99.90;;;;;;5012015;28;20291;-68
2024/02/21 02:56:37;;;;;;;2.77;1.63;;;9.00;99.90;;;;;;5017959;28;20362;-68
2024/02/21 02:59:06;;;;;;;3.27;1.67;;;8.90;99.90;;;;;;5009990;28;20272;-68
2024/02/21 03:01:35;;;;;;;4.50;1.90;;;8.90;99.90;;;;;;5016481;28;20220;-67
2024/02/21 03:04:02;;;;;;;4.90;1.77;;;9.00;99.90;;;;;;5010876;28;20701;-68
2024/02/21 03:06:29;;;;;;;6.37;1.90;;;9.00;99.90;;;;;;5013262;28;20190;-68
2024/02/21 03:08:56;;;;;;;13.80;2.43;;;9.00;99.90;;;;;;5011258;28;20205;-68
2024/02/21 03:11:28;;;;;;;7.57;2.10;;;9.00;99.90;;;;;;5012821;28;20210;-69
2024/02/21 03:13:56;;;;;;;4.03;2.00;;;9.00;99.90;;;;;;5003280;28;20222;-69
2024/02/21 03:16:25;;;;;;;3.67;1.80;;;9.00;99.90;;;;;;5014174;28;20196;-68
2024/02/21 03:18:52;;;;;;;7.33;2.27;;;9.00;99.90;;;;;;5011089;28;20218;-69
2024/02/21 03:21:19;;;;;;;10.00;2.70;;;9.00;99.90;;;;;;5022763;28;20592;-69
2024/02/21 03:23:46;;;;;;;5.43;2.10;;;9.00;99.90;;;;;;5008639;28;20331;-68
2024/02/21 03:26:16;;;;;;;11.20;2.63;;;9.00;99.90;;;;;;4992269;28;20253;-69
2024/02/21 03:28:45;;;;;;;5.53;1.97;;;9.00;99.90;;;;;;5010215;28;20726;-68
2024/02/21 03:31:13;;;;;;;8.30;2.30;;;9.00;99.90;;;;;;5013194;28;20511;-68
2024/02/21 03:33:43;;;;;;;10.23;2.50;;;9.00;99.90;;;;;;5018742;28;20249;-69
2024/02/21 03:36:14;;;;;;;4.00;1.80;;;9.00;99.90;;;;;;5008765;28;20196;-67
2024/02/21 03:38:42;;;;;;;5.60;2.20;;;9.00;99.90;;;;;;5010700;28;20568;-69
2024/02/21 03:41:09;;;;;;;8.37;2.20;;;9.00;99.90;;;;;;4990481;28;20285;-68
2024/02/21 03:43:36;;;;;;;7.63;2.17;;;9.00;99.90;;;;;;4988335;28;20218;-68
2024/02/21 03:46:03;;;;;;;7.00;2.13;;;9.00;99.90;;;;;;5027136;28;20193;-69
2024/02/21 03:48:30;;;;;;;6.20;2.40;;;9.00;99.90;;;;;;5016667;28;20309;-68
2024/02/21 03:50:59;;;;;;;6.77;1.90;;;9.00;99.90;;;;;;5012718;28;20256;-69
2024/02/21 03:53:26;;;;;;;4.10;1.80;;;9.10;99.90;;;;;;5017703;28;20198;-68
2024/02/21 03:55:53;;;;;;;6.40;2.17;;;9.00;99.90;;;;;;5012301;28;20228;-70
2024/02/21 03:58:20;;;;;;;7.37;1.80;;;9.00;99.90;;;;;;5018402;28;20703;-69
2024/02/21 04:00:47;;;;;;;5.83;2.30;;;9.00;99.90;;;;;;5010996;28;20233;-68
2024/02/21 04:03:14;;;;;;;3.63;1.50;;;9.00;99.90;;;;;;5011291;28;20329;-68
2024/02/21 04:05:41;;;;;;;9.67;2.87;;;9.00;99.90;;;;;;5011608;28;20563;-68
2024/02/21 04:08:10;;;;;;;8.07;2.37;;;9.00;99.90;;;;;;5017092;28;20202;-68
2024/02/21 04:10:37;;;;;;;9.07;2.50;;;9.00;99.90;;;;;;5008796;28;20210;-69
2024/02/21 04:13:07;;;;;;;7.63;2.03;;;9.00;99.90;;;;;;5011169;28;20846;-69
2024/02/21 04:15:34;;;;;;;8.50;2.60;;;9.00;99.90;;;;;;5011187;28;20211;-69
2024/02/21 04:18:02;;;;;;;6.30;2.30;;;9.00;99.90;;;;;;5013669;28;20190;-67
2024/02/21 04:20:30;;;;;;;6.10;2.00;;;9.00;99.90;;;;;;5010698;28;20260;-68
2024/02/21 04:22:57;;;;;;;9.43;2.53;;;9.00;99.90;;;;;;5011338;28;20457;-67
2024/02/21 04:25:26;;;;;;;8.93;2.30;;;9.00;99.90;;;;;;5010939;28;20208;-67
2024/02/21 04:27:53;;;;;;;7.57;2.47;;;9.00;99.90;;;;;;5006437;28;20570;-67
2024/02/21 04:30:20;;;;;;;9.53;2.57;;;8.90;99.90;;;;;;5010712;28;21435;-67
2024/02/21 04:32:47;;;;;;;13.07;3.37;;;8.90;99.90;;;;;;5004937;28;20271;-67
2024/02/21 04:35:14;;;;;;;9.53;2.57;;;8.90;99.90;;;;;;4999681;28;20731;-67
2024/02/21 04:37:41;;;;;;;6.70;2.67;;;8.90;99.90;;;;;;5024032;28;20195;-68
2024/02/21 04:40:09;;;;;;;7.00;2.67;;;8.90;99.90;;;;;;5011577;28;20198;-68
2024/02/21 04:42:38;;;;;;;9.50;2.50;;;8.90;99.90;;;;;;4995270;28;20229;-66
2024/02/21 04:45:06;;;;;;;11.53;2.73;;;8.90;99.90;;;;;;5010045;28;20253;-68
2024/02/21 04:47:33;;;;;;;10.17;2.83;;;9.00;99.90;;;;;;5013456;28;20239;-67
2024/02/21 04:50:00;;;;;;;8.67;2.50;;;8.90;99.90;;;;;;5010046;28;20220;-68
2024/02/21 04:52:27;;;;;;;9.77;2.73;;;8.90;99.90;;;;;;4995162;28;20209;-67
2024/02/21 04:54:54;;;;;;;14.50;3.13;;;8.90;99.90;;;;;;5009963;28;20307;-68
2024/02/21 04:57:21;;;;;;;14.20;3.30;;;8.90;99.90;;;;;;5012425;28;20608;-68
2024/02/21 04:59:49;;;;;;;10.33;3.17;;;9.00;99.90;;;;;;5000706;28;20264;-68
2024/02/21 05:02:17;;;;;;;12.37;2.70;;;9.00;99.90;;;;;;5011384;28;20663;-68
2024/02/21 05:04:44;;;;;;;11.63;3.43;;;9.00;99.90;;;;;;5009710;28;20317;-68
2024/02/21 05:07:11;;;;;;;6.27;2.97;;;9.00;99.90;;;;;;5011825;28;20615;-68
2024/02/21 05:09:39;;;;;;;12.13;3.30;;;9.00;99.90;;;;;;5007203;28;20903;-68
2024/02/21 05:12:06;;;;;;;7.57;2.97;;;9.00;99.90;;;;;;5015572;28;20197;-67
2024/02/21 05:14:33;;;;;;;10.40;2.90;;;9.00;99.90;;;;;;5013741;28;20207;-68
2024/02/21 05:17:01;;;;;;;8.63;2.93;;;9.00;99.90;;;;;;5014196;28;20285;-67
2024/02/21 05:19:28;;;;;;;9.60;3.10;;;9.00;99.90;;;;;;5008704;28;20195;-67
2024/02/21 05:21:55;;;;;;;15.23;3.70;;;9.00;99.90;;;;;;5013430;28;20199;-67
2024/02/21 05:24:23;;;;;;;18.63;5.23;;;9.00;99.90;;;;;;5013714;28;20313;-68
2024/02/21 05:26:50;;;;;;;14.03;4.63;;;9.00;99.90;;;;;;5011288;28;20285;-68
2024/02/21 05:29:17;;;;;;;18.17;4.77;;;9.00;99.90;;;;;;5007254;28;20638;-68
2024/02/21 05:31:57;;;;;;;13.33;4.10;;;9.00;99.90;;;;;;5010944;28;20247;-68
2024/02/21 05:34:26;;;;;;;13.60;3.87;;;8.90;99.90;;;;;;5009978;28;20691;-68
2024/02/21 05:36:53;;;;;;;9.80;4.00;;;8.90;99.90;;;;;;5010807;28;20215;-68
2024/02/21 05:39:22;;;;;;;7.70;3.50;;;8.90;99.90;;;;;;5000883;28;20201;-68
2024/02/21 05:41:50;;;;;;;9.80;4.10;;;8.90;99.90;;;;;;5014687;28;20202;-69
2024/02/21 05:44:17;;;;;;;9.20;3.90;;;8.90;99.90;;;;;;5013278;28;20216;-69
2024/02/21 05:46:45;;;;;;;7.57;4.03;;;8.90;99.90;;;;;;5025928;28;20281;-70
2024/02/21 05:49:12;;;;;;;11.37;4.23;;;8.90;99.90;;;;;;5018360;28;20238;-69
2024/02/21 05:51:40;;;;;;;7.07;4.00;;;8.90;99.90;;;;;;5010236;28;20555;-69
2024/02/21 05:54:08;;;;;;;9.80;4.30;;;8.90;99.90;;;;;;5028273;28;20212;-68
2024/02/21 05:56:35;;;;;;;9.10;4.67;;;8.90;99.90;;;;;;5013350;28;20227;-68
2024/02/21 05:59:02;;;;;;;11.87;4.50;;;8.90;99.90;;;;;;5015623;28;20192;-69
2024/02/21 06:01:29;;;;;;;7.03;4.53;;;8.90;99.90;;;;;;5012910;28;20243;-69
2024/02/21 06:03:56;;;;;;;7.20;3.43;;;8.90;99.90;;;;;;5016591;28;20318;-69
2024/02/21 06:06:23;;;;;;;6.77;3.40;;;8.90;99.90;;;;;;5012410;28;20602;-68
2024/02/21 06:08:52;;;;;;;6.77;3.30;;;8.90;99.90;;;;;;5015542;28;20217;-68
2024/02/21 06:11:19;;;;;;;5.73;3.70;;;8.90;99.90;;;;;;5012908;28;20770;-69
2024/02/21 06:13:46;;;;;;;6.60;3.40;;;8.90;99.90;;;;;;5014033;28;20199;-68
2024/02/21 06:16:13;;;;;;;7.83;3.90;;;9.00;99.90;;;;;;5012349;28;20754;-68
2024/02/21 06:18:40;;;;;;;7.03;4.07;;;9.00;99.90;;;;;;5013701;28;20253;-68
2024/02/21 06:21:07;;;;;;;8.73;3.93;;;9.00;99.90;;;;;;4995690;28;20203;-68
2024/02/21 06:23:34;;;;;;;5.93;3.60;;;9.00;99.90;;;;;;4995747;28;20321;-69
2024/02/21 06:26:03;;;;;;;5.03;3.63;;;9.00;99.90;;;;;;5000837;28;20202;-68
2024/02/21 06:28:30;;;;;;;6.93;3.57;;;9.10;99.90;;;;;;5018285;28;20197;-68
2024/02/21 06:30:57;;;;;;;7.53;3.23;;;9.00;99.90;;;;;;5009349;28;20565;-68
2024/02/21 06:33:24;;;;;;;5.43;3.33;;;9.10;99.90;;;;;;5012821;28;20192;-68
2024/02/21 06:35:53;;;;;;;7.83;3.27;;;9.10;99.90;;;;;;5012960;28;20208;-69
2024/02/21 06:38:20;;;;;;;5.87;3.70;;;9.10;99.90;;;;;;5017403;28;20190;-67
2024/02/21 06:40:51;;;;;;;10.17;4.73;;;9.10;99.90;;;;;;5023160;28;20200;-68
2024/02/21 06:43:22;;;;;;;10.13;4.63;;;9.10;99.90;;;;;;5015540;28;20187;-68
2024/02/21 06:45:50;;;;;;;9.40;4.20;;;9.10;99.90;;;;;;5013154;28;20204;-69
2024/02/21 06:48:19;;;;;;;12.33;5.13;;;9.00;99.90;;;;;;5014928;28;20673;-69
2024/02/21 06:50:46;;;;;;;12.27;5.07;;;9.10;99.90;;;;;;5014277;28;20258;-68
2024/02/21 06:53:14;;;;;;;11.57;4.87;;;9.10;99.90;;;;;;5018235;28;20284;-67
2024/02/21 06:55:41;;;;;;;7.27;4.33;;;9.10;99.90;;;;;;5024927;28;20274;-68
2024/02/21 06:58:11;;;;;;;8.30;4.40;;;9.10;99.90;;;;;;5012727;28;20254;-68
2024/02/21 07:00:40;;;;;;;8.50;4.40;;;9.10;99.90;;;;;;5014124;28;20194;-68
2024/02/21 07:03:07;;;;;;;11.93;5.30;;;9.10;99.90;;;;;;5003882;28;20636;-68
2024/02/21 07:05:34;;;;;;;10.60;4.73;;;9.10;99.90;;;;;;5010739;28;20659;-67
2024/02/21 07:08:03;;;;;;;10.70;4.40;;;9.10;99.90;;;;;;5009545;28;20215;-68
2024/02/21 07:10:30;;;;;;;11.43;4.87;;;9.10;99.90;;;;;;5009289;28;20225;-67
2024/02/21 07:12:57;;;;;;;6.97;4.07;;;9.10;99.90;;;;;;5006415;28;20305;-68
2024/02/21 07:15:26;;;;;;;5.93;3.83;;;9.10;99.90;;;;;;5007319;28;20207;-68
2024/02/21 07:17:55;;;;;;;7.30;3.73;;;9.10;99.90;;;;;;4994963;28;20219;-68
2024/02/21 07:20:22;;;;;;;9.13;3.60;;;9.10;99.90;;;;;;5012725;28;20568;-68
2024/02/21 07:22:49;;;;;;;7.67;3.50;;;9.20;99.90;;;;;;5012284;28;20307;-68
2024/02/21 07:25:16;;;;;;;8.40;3.70;;;9.20;99.90;;;;;;5014289;28;20285;-67
2024/02/21 07:27:44;;;;;;;10.93;3.70;;;9.20;99.90;;;;;;4994715;28;20200;-67
2024/02/21 07:30:12;;;;;;;9.63;3.53;;;9.20;99.90;;;;;;4990585;28;20742;-68
2024/02/21 07:32:39;;;;;;;14.80;4.47;;;9.30;99.90;;;;;;5011102;28;20288;-68
2024/02/21 07:35:10;;;;;;;10.23;3.67;;;9.30;99.90;;;;;;5004617;28;20232;-68
2024/02/21 07:37:38;;;;;;;10.43;3.80;;;9.30;99.90;;;;;;5009493;28;20207;-68
2024/02/21 07:40:07;;;;;;;13.23;3.77;;;9.30;99.90;;;;;;5018000;28;20199;-68
2024/02/21 07:42:35;;;;;;;13.50;4.43;;;9.40;99.90;;;;;;5009176;28;20225;-68
2024/02/21 07:45:03;;;;;;;8.80;3.40;;;9.40;99.90;;;;;;5002390;28;20208;-68
2024/02/21 07:47:30;;;;;;;16.37;4.77;;;9.40;99.90;;;;;;5009522;28;20693;-69
2024/02/21 07:49:57;;;;;;;8.47;4.10;;;9.40;99.90;;;;;;5017319;28;20219;-69
2024/02/21 07:52:25;;;;;;;12.67;4.40;;;9.40;99.90;;;;;;5003752;28;20194;-68
2024/02/21 07:54:52;;;;;;;11.43;4.10;;;9.40;99.90;;;;;;5015948;28;20572;-67
2024/02/21 07:57:19;;;;;;;11.00;3.97;;;9.40;99.90;;;;;;5016822;28;20665;-68
2024/02/21 07:59:47;;;;;;;15.07;5.40;;;9.40;99.90;;;;;;5008418;28;20194;-68
2024/02/21 08:02:14;;;;;;;10.07;4.67;;;9.40;99.90;;;;;;4994629;28;20211;-69
2024/02/21 08:04:42;;;;;;;10.57;4.60;;;9.40;99.90;;;;;;5010821;28;20242;-68
2024/02/21 08:07:09;;;;;;;11.67;5.17;;;9.40;99.90;;;;;;5009231;28;20207;-69
2024/02/21 08:09:38;;;;;;;7.80;3.57;;;9.40;99.90;;;;;;4996867;28;20235;-68
2024/02/21 08:12:06;;;;;;;8.07;3.77;;;9.50;99.90;;;;;;5012669;28;20216;-67
2024/02/21 08:14:33;;;;;;;9.03;3.53;;;9.40;99.90;;;;;;5019564;28;20284;-67
2024/02/21 08:17:00;;;;;;;10.83;4.47;;;9.40;99.90;;;;;;5012410;28;20206;-67
2024/02/21 08:19:27;;;;;;;11.23;4.60;;;9.40;99.90;;;;;;5006821;28;20730;-67
2024/02/21 08:21:54;;;;;;;10.93;5.23;;;9.40;99.90;;;;;;4992750;28;20261;-68
2024/02/21 08:24:22;;;;;;;11.60;4.83;;;9.50;99.90;;;;;;5009801;28;20201;-68
2024/02/21 08:26:51;;;;;;;10.20;4.27;;;9.50;99.90;;;;;;5021829;28;20281;-68
2024/02/21 08:29:18;;;;;;;10.07;4.57;;;9.50;99.90;;;;;;5012338;28;20214;-69
2024/02/21 08:31:45;;;;;;;11.50;4.90;;;9.50;99.90;;;;;;5007975;28;20211;-68
2024/02/21 08:34:13;;;;;;;9.17;4.93;;;9.40;99.90;;;;;;5019356;28;20551;-68
2024/02/21 08:36:40;;;;;;;8.93;4.40;;;9.40;99.90;;;;;;5022129;28;20717;-68
2024/02/21 08:39:09;;;;;;;14.47;5.90;;;9.50;99.90;;;;;;5011939;28;20264;-66
2024/02/21 08:41:36;;;;;;;11.83;5.50;;;9.50;99.90;;;;;;5004104;28;20287;-68
2024/02/21 08:44:05;;;;;;;20.03;6.73;;;9.50;99.90;;;;;;5012038;28;20197;-67
2024/02/21 08:46:34;;;;;;;12.47;6.13;;;9.50;99.90;;;;;;5017688;28;20603;-69
2024/02/21 08:49:01;;;;;;;11.07;5.30;;;9.50;99.90;;;;;;5010276;28;20205;-67
2024/02/21 08:51:28;;;;;;;12.30;5.17;;;9.50;99.90;;;;;;5007643;28;20252;-69
2024/02/21 08:53:55;;;;;;;8.80;5.17;;;9.50;99.90;;;;;;5004253;28;20194;-68
2024/02/21 08:56:22;;;;;;;8.77;4.70;;;9.50;99.90;;;;;;5016927;28;20214;-67
2024/02/21 08:58:49;;;;;;;12.37;6.07;;;9.50;99.90;;;;;;5001404;28;20596;-68
2024/02/21 09:01:18;;;;;;;9.93;4.73;;;9.50;99.90;;;;;;5016206;28;20217;-68
2024/02/21 09:03:46;;;;;;;7.83;4.23;;;9.50;99.90;;;;;;5006069;28;20236;-67
2024/02/21 09:06:14;;;;;;;6.87;3.90;;;9.50;99.90;;;;;;5017927;28;20195;-68
2024/02/21 09:08:41;;;;;;;6.97;4.30;;;9.50;99.90;;;;;;5012959;28;20272;-68
2024/02/21 09:11:08;;;;;;;6.97;3.97;;;9.60;99.90;;;;;;5018668;28;20204;-68
2024/02/21 09:13:35;;;;;;;11.63;4.80;;;9.60;99.90;;;;;;5006642;28;20616;-67
2024/02/21 09:16:02;;;;;;;7.10;4.07;;;9.60;99.90;;;;;;5022656;28;20208;-68
2024/02/21 09:18:31;;;;;;;8.67;4.27;;;9.60;99.90;;;;;;5014137;28;20225;-68
2024/02/21 09:20:58;;;;;;;11.63;5.50;;;9.70;99.90;;;;;;5009272;28;20264;-68
2024/02/21 09:23:25;;;;;;;11.63;5.37;;;9.70;99.90;;;;;;5005558;28;20662;-68
2024/02/21 09:25:52;;;;;;;12.10;5.00;;;9.70;99.90;;;;;;5008125;28;20197;-69
2024/02/21 09:28:19;;;;;;;11.37;5.60;;;9.70;99.90;;;;;;4992752;28;20202;-69
2024/02/21 09:30:46;;;;;;;11.30;5.80;;;9.70;99.90;;;;;;5009390;28;20691;-68
2024/02/21 09:33:14;;;;;;;11.43;5.70;;;9.70;99.90;;;;;;5008276;28;20500;-68
2024/02/21 09:35:42;;;;;;;14.07;6.17;;;9.70;99.90;;;;;;5015091;28;20311;-69
2024/02/21 09:38:09;;;;;;;12.43;7.07;;;9.70;99.90;;;;;;4991578;28;20217;-68
2024/02/21 09:40:38;;;;;;;12.53;6.37;;;9.80;99.90;;;;;;5011915;28;20220;-68
2024/02/21 09:43:06;;;;;;;12.43;6.40;;;9.70;99.90;;;;;;5009656;28;20249;-68
2024/02/21 09:45:35;;;;;;;10.83;5.47;;;9.80;99.90;;;;;;5016296;28;20221;-68
2024/02/21 09:48:30;;;;;;;11.63;4.97;;;9.80;99.90;;;;;;5006775;28;20281;-67
2024/02/21 09:51:00;;;;;;;6.70;5.07;;;9.80;99.90;;;;;;5009649;28;20279;-67
2024/02/21 09:53:28;;;;;;;5.83;4.27;;;9.90;99.90;;;;;;5011649;28;20229;-67
2024/02/21 09:55:56;;;;;;;7.40;4.33;;;9.90;99.90;;;;;;5013023;28;20210;-67
2024/02/21 09:58:26;;;;;;;4.87;4.03;;;9.90;99.90;;;;;;5014591;28;20202;-68
2024/02/21 10:00:53;;;;;;;8.57;4.53;;;9.90;99.90;;;;;;5009032;28;20581;-68
2024/02/21 10:03:20;;;;;;;14.30;5.63;;;9.90;99.90;;;;;;5013769;28;20233;-68
2024/02/21 10:05:50;;;;;;;10.93;6.43;;;10.00;99.90;;;;;;5007837;28;20283;-67
2024/02/21 10:08:20;;;;;;;12.73;5.87;;;10.00;99.90;;;;;;5014260;28;20214;-68
2024/02/21 10:10:53;;;;;;;9.90;5.63;;;10.00;99.90;;;;;;4984527;28;20777;-66
2024/02/21 10:13:27;;;;;;;10.40;5.90;;;10.00;99.90;;;;;;5007428;28;20567;-67
2024/02/21 10:16:08;;;;;;;9.80;5.90;;;10.00;99.90;;;;;;5013039;28;20228;-68
2024/02/21 10:18:35;;;;;;;9.50;5.73;;;10.10;99.90;;;;;;4998667;28;20222;-68
2024/02/21 10:21:07;;;;;;;8.73;5.40;;;10.10;99.90;;;;;;5018458;28;20281;-68
2024/02/21 10:23:46;;;;;;;6.37;4.47;;;10.10;99.90;;;;;;5007647;28;20208;-68
2024/02/21 10:26:13;;;;;;;6.93;4.50;;;10.20;99.90;;;;;;5013510;28;20195;-68
2024/02/21 10:28:42;;;;;;;9.67;5.43;;;10.40;99.90;;;;;;5018083;28;20209;-68
2024/02/21 10:31:12;;;;;;;7.33;4.27;;;10.60;99.90;;;;;;5020549;28;20285;-69
2024/02/21 10:33:39;;;;;;;5.17;3.80;;;10.70;99.90;;;;;;5011308;28;20211;-68
2024/02/21 10:36:10;;;;;;;4.80;3.83;;;10.70;99.90;;;;;;5004654;28;20268;-68
2024/02/21 10:38:40;;;;;;;6.40;3.97;;;10.70;99.90;;;;;;5020751;28;20206;-66
2024/02/21 10:41:13;;;;;;;7.40;3.93;;;10.70;99.90;;;;;;5017420;28;20183;-67
2024/02/21 10:43:41;;;;;;;6.87;4.03;;;10.70;99.90;;;;;;5006958;28;20206;-68
2024/02/21 10:46:10;;;;;;;7.57;3.83;;;10.70;99.90;;;;;;5015283;28;20222;-68
2024/02/21 10:48:44;;;;;;;5.87;3.83;;;10.60;99.90;;;;;;5014208;28;20207;-68
2024/02/21 10:51:19;;;;;;;4.23;3.50;;;10.60;99.90;;;;;;5013780;28;20736;-68
2024/02/21 10:53:51;;;;;;;6.00;3.80;;;10.60;99.90;;;;;;5008759;28;20210;-67
2024/02/21 10:56:27;;;;;;;4.17;3.10;;;10.60;99.90;;;;;;5008397;28;20199;-68
2024/02/21 10:58:55;;;;;;;3.23;2.90;;;10.60;99.90;;;;;;5007194;28;20201;-68
2024/02/21 11:01:23;;;;;;;3.40;3.03;;;10.60;99.90;;;;;;5018535;28;20227;-67
2024/02/21 11:03:53;;;;;;;5.00;3.80;;;10.60;99.90;;;;;;5013543;28;20235;-67
2024/02/21 11:06:22;;;;;;;4.47;3.93;;;10.50;99.90;;;;;;4997242;28;20659;-67
2024/02/21 11:08:59;;;;;;;4.83;3.03;;;10.50;99.90;;;;;;5000810;28;20266;-67
2024/02/21 11:11:28;;;;;;;2.80;2.53;;;10.50;99.90;;;;;;5019025;28;20208;-67
2024/02/21 11:14:06;;;;;;;2.80;2.60;;;10.50;99.90;;;;;;5004489;28;20587;-66
2024/02/21 11:16:38;;;;;;;2.90;2.53;;;10.50;99.90;;;;;;5015302;28;20275;-67
2024/02/21 11:19:06;;;;;;;4.50;2.67;;;10.50;99.90;;;;;;5005116;28;20226;-67
2024/02/21 11:21:37;;;;;;;4.00;2.53;;;10.50;99.90;;;;;;5008568;28;20222;-67
2024/02/21 11:24:04;;;;;;;3.90;2.83;;;10.50;99.90;;;;;;5010944;28;20733;-67
2024/02/21 11:26:33;;;;;;;4.27;2.83;;;10.50;99.90;;;;;;5010615;28;20198;-67
2024/02/21 11:29:02;;;;;;;3.77;2.93;;;10.50;99.90;;;;;;5007416;28;20311;-67
2024/02/21 11:31:40;;;;;;;3.77;2.60;;;10.60;99.90;;;;;;5006268;28;20203;-67
2024/02/21 11:34:10;;;;;;;3.37;2.37;;;10.60;99.90;;;;;;5015891;28;20220;-67
2024/02/21 11:36:51;;;;;;;3.90;2.60;;;10.60;99.90;;;;;;5015797;28;20279;-68
2024/02/21 11:39:24;;;;;;;3.77;2.90;;;10.60;99.90;;;;;;5009887;28;20256;-68
2024/02/21 11:42:07;;;;;;;2.67;2.40;;;10.60;99.90;;;;;;5016985;28;20300;-67
2024/02/21 11:44:37;;;;;;;3.23;2.67;;;10.60;99.90;;;;;;5010028;28;20194;-68
2024/02/21 11:47:05;;;;;;;4.73;2.40;;;10.60;99.90;;;;;;5019791;28;20197;-68
2024/02/21 11:49:32;;;;;;;2.50;2.30;;;10.60;99.90;;;;;;4993407;28;20206;-66
2024/02/21 11:52:00;;;;;;;4.07;2.50;;;10.60;99.90;;;;;;5009543;28;20287;-67
2024/02/21 11:54:27;;;;;;;4.60;2.37;;;10.60;99.90;;;;;;5005243;28;20202;-67
2024/02/21 11:56:55;;;;;;;3.03;2.40;;;10.60;99.90;;;;;;4997224;28;20195;-68
2024/02/21 11:59:23;;;;;;;2.80;2.10;;;10.70;99.90;;;;;;5010077;28;20197;-68
2024/02/21 12:01:51;;;;;;;2.93;2.40;;;10.70;99.90;;;;;;5008673;28;20200;-67
2024/02/21 12:04:20;;;;;;;2.30;2.03;;;10.70;99.90;;;;;;5003130;28;20224;-67
2024/02/21 12:06:47;;;;;;;5.90;2.43;;;10.80;99.90;;;;;;5019310;28;20229;-67
2024/02/21 12:09:16;;;;;;;7.20;2.67;;;10.80;99.90;;;;;;5000761;28;20208;-66
2024/02/21 12:11:44;;;;;;;2.53;2.33;;;10.80;99.90;;;;;;5018320;28;20218;-67
2024/02/21 12:14:11;;;;;;;2.90;2.10;;;10.90;99.90;;;;;;4987628;28;20195;-68
2024/02/21 12:16:40;;;;;;;3.23;1.97;;;11.10;99.90;;;;;;5016149;28;20205;-67
2024/02/21 12:19:08;;;;;;;2.23;2.03;;;11.40;99.90;;;;;;4994721;28;20219;-66
2024/02/21 12:21:36;;;;;;;2.70;2.07;;;11.70;99.90;;;;;;5007044;28;20354;-67
2024/02/21 12:24:13;;;;;;;2.33;2.13;;;12.10;99.90;;;;;;5011761;28;20213;-67
2024/02/21 12:26:41;;;;;;;2.40;2.20;;;12.40;99.90;;;;;;5010048;28;20204;-67
2024/02/21 12:29:09;;;;;;;3.27;2.23;;;12.70;99.90;;;;;;5014426;28;20612;-67
2024/02/21 12:31:36;;;;;;;2.10;1.90;;;12.80;99.90;;;;;;5010676;28;20253;-67
2024/02/21 12:34:05;;;;;;;2.90;2.10;;;12.90;99.90;;;;;;5020813;28;20212;-68
2024/02/21 12:36:32;;;;;;;4.00;2.00;;;12.90;99.90;;;;;;4990955;28;20195;-67
2024/02/21 12:39:00;;;;;;;2.73;2.10;;;12.80;99.90;;;;;;5018110;28;20190;-67
2024/02/21 12:41:27;;;;;;;2.80;1.73;;;12.80;99.90;;;;;;5018526;28;20211;-68
2024/02/21 12:43:56;;;;;;;1.70;1.40;;;12.70;99.90;;;;;;5016963;28;20188;-67
2024/02/21 12:46:23;;;;;;;2.70;1.37;;;12.70;99.90;;;;;;4995147;28;20211;-67
2024/02/21 12:48:51;;;;;;;1.63;1.30;;;12.70;99.90;;;;;;5005360;28;20289;-67
2024/02/21 12:51:20;;;;;;;3.17;1.20;;;12.70;99.90;;;;;;5005867;28;20207;-67
2024/02/21 12:53:49;;;;;;;1.87;1.27;;;12.70;99.90;;;;;;5009511;28;20196;-67
2024/02/21 12:56:16;;;;;;;1.73;1.37;;;12.80;99.90;;;;;;5008651;28;20281;-67
2024/02/21 12:58:44;;;;;;;1.93;1.30;;;12.90;99.90;;;;;;5002371;28;20206;-66